createdAt,value
2022-10-22T00:00:08.857Z,78.72
2022-10-22T00:02:35.789Z,78.76
2022-10-22T00:05:02.584Z,79.44
2022-10-22T00:07:29.490Z,79.40
2022-10-22T00:09:56.243Z,79.16
2022-10-22T00:12:23.048Z,79.46
2022-10-22T00:14:50.047Z,79.41
2022-10-22T00:17:16.959Z,79.93
2022-10-22T00:19:43.742Z,79.24
2022-10-22T00:22:11.517Z,79.48
2022-10-22T00:24:39.519Z,79.79
2022-10-22T00:27:08.369Z,80.50
2022-10-22T00:29:35.391Z,80.33
2022-10-22T00:32:02.723Z,80.29
2022-10-22T00:34:29.487Z,80.60
2022-10-22T00:36:56.200Z,79.82
2022-10-22T00:39:25.262Z,79.40
2022-10-22T00:41:53.848Z,79.57
2022-10-22T00:44:57.948Z,79.54
2022-10-22T00:47:26.009Z,80.70
2022-10-22T00:49:53.249Z,80.20
2022-10-22T00:52:20.231Z,80.39
2022-10-22T00:54:47.082Z,80.50
2022-10-22T00:57:14.780Z,79.63
2022-10-22T00:59:41.603Z,79.24
2022-10-22T01:02:08.483Z,79.79
2022-10-22T01:04:35.190Z,78.80
2022-10-22T01:07:02.167Z,78.92
2022-10-22T01:10:04.210Z,79.28
2022-10-22T01:12:55.355Z,79.13
2022-10-22T01:15:25.483Z,79.57
2022-10-22T01:18:05.794Z,79.78
2022-10-22T01:20:44.771Z,79.87
2022-10-22T01:23:33.436Z,80.52
2022-10-22T01:26:18.503Z,79.69
2022-10-22T01:29:16.218Z,80.06
2022-10-22T01:31:51.962Z,80.09
2022-10-22T01:34:19.248Z,80.83
2022-10-22T01:36:46.820Z,80.13
2022-10-22T01:39:15.541Z,79.64
2022-10-22T01:41:45.524Z,78.50
2022-10-22T01:44:26.815Z,79.85
2022-10-22T01:47:07.797Z,80.59
2022-10-22T01:49:43.561Z,80.82
2022-10-22T01:52:39.609Z,80.77
2022-10-22T01:55:28.855Z,80.80
2022-10-22T01:58:04.178Z,80.72
2022-10-22T02:00:31.212Z,81.21
2022-10-22T02:03:04.426Z,79.85
2022-10-22T02:05:43.358Z,79.67
2022-10-22T02:08:12.602Z,80.75
2022-10-22T02:10:40.953Z,81.06
2022-10-22T02:13:10.700Z,79.32
2022-10-22T02:15:38.668Z,80.71
2022-10-22T02:18:06.691Z,80.37
2022-10-22T02:20:36.091Z,80.57
2022-10-22T02:23:03.659Z,80.27
2022-10-22T02:25:37.208Z,80.24
2022-10-22T02:28:16.521Z,80.42
2022-10-22T02:30:47.654Z,80.63
2022-10-22T02:33:14.313Z,80.32
2022-10-22T02:35:42.056Z,80.72
2022-10-22T02:38:09.631Z,79.76
2022-10-22T02:40:36.598Z,79.97
2022-10-22T02:43:06.924Z,80.87
2022-10-22T02:45:34.740Z,80.74
2022-10-22T02:48:01.624Z,80.81
2022-10-22T02:50:28.420Z,80.51
2022-10-22T02:52:55.207Z,79.48
2022-10-22T02:55:21.915Z,80.75
2022-10-22T02:57:48.714Z,80.55
2022-10-22T03:00:16.175Z,80.72
2022-10-22T03:02:42.912Z,80.19
2022-10-22T03:05:10.321Z,80.30
2022-10-22T03:07:37.101Z,80.67
2022-10-22T03:10:04.462Z,80.82
2022-10-22T03:12:31.598Z,80.28
2022-10-22T03:14:58.401Z,80.20
2022-10-22T03:17:25.127Z,80.94
2022-10-22T03:19:51.821Z,81.10
2022-10-22T03:22:25.257Z,80.89
2022-10-22T03:24:54.873Z,81.18
2022-10-22T03:27:22.421Z,80.81
2022-10-22T03:29:50.879Z,80.78
2022-10-22T03:32:17.609Z,81.14
2022-10-22T03:34:44.496Z,80.86
2022-10-22T03:37:11.695Z,80.25
2022-10-22T03:39:38.739Z,80.30
2022-10-22T03:42:07.071Z,81.50
2022-10-22T03:44:36.100Z,81.60
2022-10-22T03:47:03.013Z,81.71
2022-10-22T03:49:29.847Z,81.81
2022-10-22T03:51:56.686Z,81.00
2022-10-22T03:54:23.388Z,80.71
2022-10-22T03:56:50.125Z,80.77
2022-10-22T03:59:16.886Z,81.45
2022-10-22T04:01:43.653Z,81.22
2022-10-22T04:04:10.445Z,81.31
2022-10-22T04:06:37.252Z,81.52
2022-10-22T04:09:04.169Z,80.93
2022-10-22T04:11:31.148Z,81.45
2022-10-22T04:13:57.957Z,81.83
2022-10-22T04:16:27.394Z,81.49
2022-10-22T04:18:57.387Z,80.31
2022-10-22T04:21:24.604Z,81.97
2022-10-22T04:23:52.762Z,81.77
2022-10-22T04:26:20.008Z,82.18
2022-10-22T04:28:48.177Z,82.41
2022-10-22T04:31:17.367Z,82.12
2022-10-22T04:33:44.119Z,82.08
2022-10-22T04:36:16.532Z,82.19
2022-10-22T04:38:44.819Z,81.12
2022-10-22T04:41:20.572Z,81.73
2022-10-22T04:43:47.870Z,81.91
2022-10-22T04:46:16.336Z,81.98
2022-10-22T04:48:44.348Z,81.63
2022-10-22T04:51:13.364Z,81.58
2022-10-22T04:53:42.938Z,81.36
2022-10-22T04:56:12.109Z,80.26
2022-10-22T04:58:39.133Z,80.44
2022-10-22T05:01:13.348Z,80.76
2022-10-22T05:03:40.320Z,80.66
2022-10-22T05:06:07.737Z,80.83
2022-10-22T05:08:34.807Z,80.44
2022-10-22T05:11:01.651Z,81.07
2022-10-22T05:13:28.401Z,80.73
2022-10-22T05:15:55.154Z,80.49
2022-10-22T05:18:22.673Z,80.28
2022-10-22T05:20:49.543Z,79.68
2022-10-22T05:23:16.344Z,78.62
2022-10-22T05:25:43.047Z,78.85
2022-10-22T05:28:09.800Z,79.52
2022-10-22T05:30:36.568Z,79.07
2022-10-22T05:33:03.351Z,78.82
2022-10-22T05:35:30.147Z,78.27
2022-10-22T05:40:31.047Z,77.99
2022-10-22T05:42:59.127Z,78.25
2022-10-22T05:45:25.933Z,78.15
2022-10-22T05:47:52.630Z,78.40
2022-10-22T05:50:19.339Z,78.20
2022-10-22T05:52:46.088Z,78.46
2022-10-22T05:55:12.792Z,77.95
2022-10-22T05:57:40.724Z,77.83
2022-10-22T06:00:10.560Z,77.38
2022-10-22T06:02:39.898Z,77.33
2022-10-22T06:05:07.212Z,77.84
2022-10-22T06:07:34.092Z,78.23
2022-10-22T06:10:01.163Z,77.85
2022-10-22T06:12:28.016Z,78.37
2022-10-22T06:14:54.808Z,77.91
2022-10-22T06:17:21.544Z,76.65
2022-10-22T06:19:48.231Z,76.87
2022-10-22T06:22:14.965Z,76.97
2022-10-22T06:24:45.013Z,76.35
2022-10-22T06:27:12.110Z,75.51
2022-10-22T06:29:38.847Z,74.71
2022-10-22T06:32:05.741Z,75.20
2022-10-22T06:34:32.633Z,75.14
2022-10-22T06:36:59.562Z,75.03
2022-10-22T06:39:26.395Z,73.85
2022-10-22T06:41:53.155Z,73.00
2022-10-22T06:44:20.554Z,73.20
2022-10-22T06:46:52.057Z,72.31
2022-10-22T06:49:20.596Z,70.72
2022-10-22T06:51:51.816Z,70.41
2022-10-22T06:54:18.808Z,70.25
2022-10-22T06:56:45.630Z,69.48
2022-10-22T06:59:12.367Z,70.12
2022-10-22T07:01:39.422Z,68.64
2022-10-22T07:04:06.774Z,66.81
2022-10-22T07:06:33.584Z,65.13
2022-10-22T07:09:00.515Z,65.68
2022-10-22T07:11:30.286Z,64.67
2022-10-22T07:13:58.865Z,63.28
2022-10-22T07:16:29.676Z,62.24
2022-10-22T07:19:00.501Z,61.18
2022-10-22T07:21:27.599Z,61.59
2022-10-22T07:23:54.654Z,59.99
2022-10-22T07:26:21.673Z,59.26
2022-10-22T07:28:48.611Z,59.25
2022-10-22T07:31:16.210Z,57.85
2022-10-22T07:33:43.165Z,57.05
2022-10-22T07:36:12.593Z,57.79
2022-10-22T07:38:39.492Z,55.93
2022-10-22T07:41:06.275Z,54.61
2022-10-22T07:43:33.038Z,54.85
2022-10-22T07:46:00.432Z,53.66
2022-10-22T07:48:27.404Z,53.68
2022-10-22T07:50:54.218Z,53.49
2022-10-22T07:53:21.671Z,52.52
2022-10-22T07:55:50.102Z,51.70
2022-10-22T07:58:18.389Z,51.55
2022-10-22T08:00:45.151Z,49.39
2022-10-22T08:03:12.751Z,49.12
2022-10-22T08:05:40.025Z,48.26
2022-10-22T08:08:07.391Z,48.50
2022-10-22T08:10:35.093Z,47.89
2022-10-22T08:13:02.016Z,46.49
2022-10-22T08:15:28.907Z,46.80
2022-10-22T08:17:55.696Z,45.38
2022-10-22T08:20:22.566Z,44.81
2022-10-22T08:22:49.322Z,43.77
2022-10-22T08:25:18.068Z,43.92
2022-10-22T08:27:45.767Z,44.21
2022-10-22T08:30:13.352Z,43.10
2022-10-22T08:32:40.622Z,41.84
2022-10-22T08:35:07.808Z,41.54
2022-10-22T08:37:34.543Z,40.83
2022-10-22T08:40:01.325Z,40.92
2022-10-22T08:42:52.867Z,40.53
2022-10-22T08:45:41.525Z,40.83
2022-10-22T08:48:43.691Z,40.79
2022-10-22T08:51:18.471Z,40.19
2022-10-22T08:54:06.268Z,40.19
2022-10-22T08:56:35.821Z,39.21
2022-10-22T08:59:14.904Z,39.95
2022-10-22T09:01:49.648Z,39.29
2022-10-22T09:04:25.596Z,37.77
2022-10-22T09:06:54.459Z,37.30
2022-10-22T09:09:21.688Z,36.73
2022-10-22T09:11:50.564Z,36.40
2022-10-22T09:14:25.230Z,37.16
2022-10-22T09:17:13.896Z,35.61
2022-10-22T09:19:46.611Z,36.54
2022-10-22T09:22:43.479Z,35.79
2022-10-22T09:25:26.562Z,35.72
2022-10-22T09:27:58.256Z,35.15
2022-10-22T09:30:28.505Z,34.65
2022-10-22T09:33:01.240Z,34.69
2022-10-22T09:35:28.216Z,33.83
2022-10-22T09:37:56.554Z,33.06
2022-10-22T09:40:23.829Z,32.96
2022-10-22T09:42:51.419Z,32.73
2022-10-22T09:45:20.587Z,31.95
2022-10-22T09:48:01.428Z,32.66
2022-10-22T09:50:39.761Z,33.04
2022-10-22T09:53:26.533Z,32.80
2022-10-22T09:58:28.739Z,32.33
2022-10-22T10:01:00.819Z,31.87
2022-10-22T10:03:31.412Z,31.97
2022-10-22T10:06:03.064Z,31.17
2022-10-22T10:08:32.977Z,30.83
2022-10-22T10:11:08.777Z,30.55
2022-10-22T10:14:04.172Z,31.06
2022-10-22T10:16:58.496Z,30.27
2022-10-22T10:19:37.584Z,30.18
2022-10-22T10:22:15.419Z,30.93
2022-10-22T10:25:02.055Z,30.25
2022-10-22T10:27:36.756Z,30.33
2022-10-22T10:30:03.468Z,30.10
2022-10-22T10:33:01.052Z,30.01
2022-10-22T10:35:35.010Z,29.85
2022-10-22T10:38:29.862Z,29.70
2022-10-22T10:41:04.656Z,29.02
2022-10-22T10:43:44.585Z,29.14
2022-10-22T10:46:29.538Z,28.99
2022-10-22T10:49:20.124Z,28.60
2022-10-22T10:52:21.318Z,26.85
2022-10-22T10:55:16.248Z,26.12
2022-10-22T10:58:04.264Z,27.33
2022-10-22T11:00:36.719Z,27.41
2022-10-22T11:03:16.181Z,26.75
2022-10-22T11:05:55.712Z,26.54
2022-10-22T11:08:27.207Z,25.78
2022-10-22T11:11:02.020Z,26.80
2022-10-22T11:13:59.602Z,25.61
2022-10-22T11:16:56.927Z,26.21
2022-10-22T11:19:57.826Z,25.79
2022-10-22T11:22:44.428Z,25.80
2022-10-22T11:25:32.328Z,24.88
2022-10-22T11:28:11.308Z,23.39
2022-10-22T11:30:39.182Z,24.73
2022-10-22T11:33:10.662Z,24.75
2022-10-22T11:35:45.295Z,24.47
2022-10-22T11:38:15.525Z,24.66
2022-10-22T11:40:48.964Z,24.79
2022-10-22T11:43:35.617Z,25.31
2022-10-22T11:46:09.834Z,25.35
2022-10-22T11:48:38.513Z,25.37
2022-10-22T11:51:37.834Z,25.90
2022-10-22T11:54:29.777Z,25.39
2022-10-22T11:57:14.732Z,25.26
2022-10-22T11:59:47.518Z,24.93
2022-10-22T12:02:43.154Z,26.19
2022-10-22T12:05:22.397Z,24.51
2022-10-22T12:07:52.059Z,25.22
2022-10-22T12:10:20.918Z,25.93
2022-10-22T12:12:58.772Z,25.94
2022-10-22T12:15:28.999Z,25.49
2022-10-22T12:18:05.214Z,25.90
2022-10-22T12:20:32.182Z,25.33
2022-10-22T12:23:00.117Z,25.86
2022-10-22T12:25:35.704Z,25.41
2022-10-22T12:28:02.957Z,25.49
2022-10-22T12:30:32.320Z,25.80
2022-10-22T12:33:02.998Z,25.75
2022-10-22T12:35:35.714Z,26.01
2022-10-22T12:38:10.935Z,27.10
2022-10-22T12:40:45.784Z,26.18
2022-10-22T12:43:18.151Z,25.55
2022-10-22T12:45:47.194Z,25.86
2022-10-22T12:48:23.291Z,26.20
2022-10-22T12:50:53.272Z,25.87
2022-10-22T12:53:25.393Z,25.44
2022-10-22T12:55:53.648Z,25.25
2022-10-22T12:58:23.195Z,25.59
2022-10-22T13:00:57.404Z,25.52
2022-10-22T13:03:46.096Z,25.15
2022-10-22T13:06:12.991Z,25.44
2022-10-22T13:08:40.452Z,24.79
2022-10-22T13:11:10.556Z,25.85
2022-10-22T13:13:37.552Z,25.41
2022-10-22T13:16:24.312Z,25.15
2022-10-22T13:18:52.451Z,25.10
2022-10-22T13:21:33.027Z,25.72
2022-10-22T13:24:19.690Z,25.46
2022-10-22T13:26:53.260Z,25.88
2022-10-22T13:29:21.634Z,25.64
2022-10-22T13:31:50.280Z,25.98
2022-10-22T13:34:21.797Z,26.21
2022-10-22T13:36:49.127Z,26.15
2022-10-22T13:39:23.919Z,25.66
2022-10-22T13:41:51.657Z,26.71
2022-10-22T13:44:21.773Z,27.22
2022-10-22T13:46:48.626Z,26.09
2022-10-22T13:49:19.987Z,26.79
2022-10-22T13:51:47.108Z,26.87
2022-10-22T13:54:20.671Z,26.67
2022-10-22T13:56:47.420Z,27.86
2022-10-22T13:59:15.368Z,28.47
2022-10-22T14:01:45.406Z,27.96
2022-10-22T14:04:14.761Z,29.87
2022-10-22T14:06:41.572Z,30.88
2022-10-22T14:09:14.106Z,31.18
2022-10-22T14:11:40.913Z,32.29
2022-10-22T14:14:09.216Z,32.52
2022-10-22T14:16:37.331Z,33.89
2022-10-22T14:19:04.824Z,34.77
2022-10-22T14:21:35.691Z,35.43
2022-10-22T14:24:02.503Z,36.17
2022-10-22T14:26:33.135Z,37.32
2022-10-22T14:29:15.984Z,37.95
2022-10-22T14:31:44.515Z,38.56
2022-10-22T14:34:13.898Z,39.75
2022-10-22T14:36:43.638Z,39.70
2022-10-22T14:39:10.801Z,41.00
2022-10-22T14:41:37.670Z,41.53
2022-10-22T14:44:04.685Z,41.01
2022-10-22T14:46:31.479Z,40.73
2022-10-22T14:48:58.280Z,41.61
2022-10-22T14:51:25.067Z,42.92
2022-10-22T14:53:51.870Z,44.33
2022-10-22T14:56:21.484Z,44.54
2022-10-22T14:58:48.965Z,44.70
2022-10-22T15:01:15.705Z,46.28
2022-10-22T15:03:42.625Z,46.84
2022-10-22T15:06:09.354Z,46.83
2022-10-22T15:08:36.255Z,47.03
2022-10-22T15:11:02.994Z,47.23
2022-10-22T15:13:30.122Z,48.69
2022-10-22T15:15:58.141Z,47.98
2022-10-22T15:18:25.832Z,47.07
2022-10-22T15:21:00.656Z,48.74
2022-10-22T15:23:27.821Z,49.50
2022-10-22T15:25:55.137Z,48.28
2022-10-22T15:28:22.456Z,48.56
2022-10-22T15:31:00.106Z,49.46
2022-10-22T15:33:28.028Z,48.85
2022-10-22T15:35:55.552Z,49.07
2022-10-22T15:38:22.658Z,49.43
2022-10-22T15:40:49.448Z,49.24
2022-10-22T15:43:16.138Z,50.18
2022-10-22T15:45:42.856Z,50.31
2022-10-22T15:48:11.406Z,51.27
2022-10-22T15:50:40.250Z,51.60
2022-10-22T15:53:07.087Z,51.83
2022-10-22T15:55:33.850Z,52.93
2022-10-22T15:58:03.360Z,53.49
2022-10-22T16:00:30.982Z,53.61
2022-10-22T16:02:57.658Z,54.14
2022-10-22T16:05:24.580Z,53.23
2022-10-22T16:07:53.168Z,54.62
2022-10-22T16:10:20.002Z,54.52
2022-10-22T16:12:46.861Z,54.87
2022-10-22T16:15:13.704Z,55.02
2022-10-22T16:17:40.514Z,55.20
2022-10-22T16:20:07.819Z,55.55
2022-10-22T16:22:34.743Z,56.05
2022-10-22T16:25:01.499Z,54.89
2022-10-22T16:27:28.314Z,55.79
2022-10-22T16:29:55.211Z,55.78
2022-10-22T16:32:22.102Z,55.48
2022-10-22T16:34:48.868Z,53.82
2022-10-22T16:37:15.644Z,54.68
2022-10-22T16:39:42.334Z,53.31
2022-10-22T16:42:09.077Z,54.78
2022-10-22T16:44:35.763Z,54.58
2022-10-22T16:47:02.575Z,55.07
2022-10-22T16:49:29.301Z,56.24
2022-10-22T16:51:56.031Z,55.67
2022-10-22T16:54:22.876Z,55.02
2022-10-22T16:56:49.635Z,56.31
2022-10-22T16:59:16.409Z,56.53
2022-10-22T17:01:43.204Z,57.06
2022-10-22T17:04:10.414Z,56.55
2022-10-22T17:06:37.276Z,57.90
2022-10-22T17:09:04.766Z,54.27
2022-10-22T17:11:36.276Z,55.52
2022-10-22T17:14:04.978Z,55.49
2022-10-22T17:16:31.809Z,55.72
2022-10-22T17:18:58.619Z,56.72
2022-10-22T17:21:25.515Z,57.05
2022-10-22T17:23:56.570Z,56.87
2022-10-22T17:26:24.205Z,57.68
2022-10-22T17:28:51.052Z,56.84
2022-10-22T17:31:19.699Z,56.98
2022-10-22T17:33:47.176Z,56.49
2022-10-22T17:36:14.388Z,57.12
2022-10-22T17:38:42.222Z,56.94
2022-10-22T17:41:13.814Z,56.98
2022-10-22T17:43:41.565Z,57.29
2022-10-22T17:46:19.937Z,57.07
2022-10-22T17:48:55.042Z,57.10
2022-10-22T17:51:23.440Z,57.48
2022-10-22T17:53:52.978Z,57.67
2022-10-22T17:56:22.171Z,57.49
2022-10-22T17:58:49.375Z,57.39
2022-10-22T18:01:20.028Z,57.67
2022-10-22T18:03:47.101Z,57.36
2022-10-22T18:06:14.584Z,57.65
2022-10-22T18:08:54.878Z,57.57
2022-10-22T18:11:23.867Z,57.49
2022-10-22T18:13:51.873Z,58.15
2022-10-22T18:16:19.324Z,58.29
2022-10-22T18:18:47.629Z,58.29
2022-10-22T18:21:15.529Z,58.36
2022-10-22T18:23:42.643Z,58.47
2022-10-22T18:26:09.496Z,58.83
2022-10-22T18:28:36.683Z,59.12
2022-10-22T18:31:12.637Z,59.87
2022-10-22T18:33:40.741Z,60.13
2022-10-22T18:36:12.332Z,59.75
2022-10-22T18:38:39.447Z,60.03
2022-10-22T18:41:07.615Z,61.17
2022-10-22T18:43:35.459Z,61.43
2022-10-22T18:46:02.447Z,60.95
2022-10-22T18:48:29.177Z,61.26
2022-10-22T18:51:01.797Z,61.87
2022-10-22T18:53:28.976Z,61.34
2022-10-22T18:55:55.720Z,61.03
2022-10-22T18:58:22.563Z,61.65
2022-10-22T19:00:50.562Z,61.88
2022-10-22T19:03:17.740Z,61.58
2022-10-22T19:05:49.438Z,61.61
2022-10-22T19:08:19.140Z,62.05
2022-10-22T19:10:47.136Z,61.71
2022-10-22T19:13:16.223Z,61.79
2022-10-22T19:15:43.254Z,61.89
2022-10-22T19:18:10.296Z,62.21
2022-10-22T19:20:37.129Z,61.71
2022-10-22T19:23:04.328Z,61.97
2022-10-22T19:25:31.062Z,62.36
2022-10-22T19:27:57.820Z,62.51
2022-10-22T19:30:24.640Z,62.68
2022-10-22T19:32:51.386Z,62.30
2022-10-22T19:35:18.176Z,62.35
2022-10-22T19:37:48.310Z,63.25
2022-10-22T19:40:15.426Z,63.65
2022-10-22T19:42:44.374Z,64.70
2022-10-22T19:45:11.643Z,65.29
2022-10-22T19:47:38.364Z,64.15
2022-10-22T19:50:05.772Z,64.45
2022-10-22T19:52:33.303Z,65.05
2022-10-22T19:55:00.004Z,64.47
2022-10-22T19:57:26.720Z,65.89
2022-10-22T19:59:53.432Z,64.63
2022-10-22T20:02:20.196Z,66.19
2022-10-22T20:04:49.989Z,65.63
2022-10-22T20:07:16.923Z,66.69
2022-10-22T20:09:43.666Z,66.96
2022-10-22T20:12:10.370Z,66.14
2022-10-22T20:14:37.510Z,65.96
2022-10-22T20:17:04.494Z,66.10
2022-10-22T20:19:31.363Z,65.68
2022-10-22T20:24:30.024Z,65.66
2022-10-22T20:26:56.763Z,66.47
2022-10-22T20:29:23.474Z,65.92
2022-10-22T20:31:50.236Z,65.97
2022-10-22T20:34:17.276Z,65.25
2022-10-22T20:36:43.991Z,66.12
2022-10-22T20:39:12.921Z,66.62
2022-10-22T20:41:40.572Z,66.65
2022-10-22T20:44:11.559Z,65.82
2022-10-22T20:46:38.427Z,66.25
2022-10-22T20:49:08.001Z,66.53
2022-10-22T20:51:37.953Z,67.48
2022-10-22T20:54:05.779Z,66.33
2022-10-22T20:56:32.656Z,66.38
2022-10-22T20:59:05.689Z,66.71
2022-10-22T21:01:44.671Z,66.49
2022-10-22T21:04:11.539Z,66.02
2022-10-22T21:06:40.225Z,65.79
2022-10-22T21:09:08.193Z,65.79
2022-10-22T21:11:36.186Z,66.92
2022-10-22T21:14:03.573Z,66.63
2022-10-22T21:16:30.448Z,67.36
2022-10-22T21:18:57.510Z,66.66
2022-10-22T21:21:24.196Z,67.05
2022-10-22T21:23:51.560Z,67.16
2022-10-22T21:26:19.798Z,66.58
2022-10-22T21:28:47.204Z,66.92
2022-10-22T21:31:20.532Z,67.54
2022-10-22T21:33:49.760Z,67.24
2022-10-22T21:36:21.616Z,68.40
2022-10-22T21:38:50.605Z,68.17
2022-10-22T21:41:18.812Z,68.58
2022-10-22T21:43:46.116Z,68.65
2022-10-22T21:46:24.214Z,68.35
2022-10-22T21:48:59.287Z,68.95
2022-10-22T21:51:26.104Z,67.95
2022-10-22T21:53:53.354Z,68.07
2022-10-22T21:56:28.575Z,68.63
2022-10-22T21:58:57.472Z,68.65
2022-10-22T22:01:24.678Z,69.04
2022-10-22T22:03:52.410Z,68.76
2022-10-22T22:06:22.027Z,68.82
2022-10-22T22:08:50.075Z,68.14
2022-10-22T22:11:19.314Z,67.98
2022-10-22T22:13:47.260Z,68.08
2022-10-22T22:16:16.428Z,67.86
2022-10-22T22:18:43.188Z,68.26
2022-10-22T22:21:18.387Z,68.06
2022-10-22T22:23:46.566Z,68.14
2022-10-22T22:26:15.053Z,68.58
2022-10-22T22:28:41.642Z,68.39
2022-10-22T22:31:22.933Z,69.34
2022-10-22T22:33:49.627Z,69.54
2022-10-22T22:36:17.528Z,69.58
2022-10-22T22:38:44.212Z,70.76
2022-10-22T22:41:10.957Z,70.62
2022-10-22T22:43:37.780Z,70.57
2022-10-22T22:46:07.663Z,70.20
2022-10-22T22:48:34.749Z,70.31
2022-10-22T22:51:05.767Z,70.77
2022-10-22T22:53:33.820Z,70.65
2022-10-22T22:56:13.142Z,70.42
2022-10-22T22:58:40.765Z,70.12
2022-10-22T23:01:20.375Z,69.99
2022-10-22T23:03:57.927Z,70.99
2022-10-22T23:06:30.039Z,70.16
2022-10-22T23:08:57.264Z,70.19
2022-10-22T23:11:25.968Z,69.80
2022-10-22T23:14:00.535Z,70.49
2022-10-22T23:16:32.196Z,71.01
2022-10-22T23:18:59.933Z,70.43
2022-10-22T23:21:29.824Z,71.64
2022-10-22T23:23:59.127Z,71.44
2022-10-22T23:26:29.179Z,71.51
2022-10-22T23:29:03.495Z,70.96
2022-10-22T23:31:30.238Z,71.37
2022-10-22T23:33:57.348Z,71.59
2022-10-22T23:36:24.112Z,71.92
2022-10-22T23:38:50.888Z,72.09
2022-10-22T23:41:17.972Z,71.53
2022-10-22T23:43:44.756Z,72.26
2022-10-22T23:46:12.693Z,72.18
2022-10-22T23:48:40.246Z,71.90
2022-10-22T23:51:08.802Z,72.80
2022-10-22T23:53:35.493Z,72.48
2022-10-22T23:56:06.919Z,72.17
2022-10-22T23:58:34.313Z,72.19
